Time;durP1;ratioP1;P1;durP2;ratioP2;P2;SDS_P1;SDS_P2;PMS_P1;PMS_P2;Temp;Humidity;BMP_temperature;BMP_pressure;BME280_temperature;BME280_humidity;BME280_pressure;Samples;Min_cycle;Max_cycle;Signal;HPM_P1;HPM_P2
2024/04/14 00:00:54;;;;;;;4.82;1.80;;;;;;;;;;5453251;26;20007;-81
2024/04/14 00:03:20;;;;;;;8.93;2.38;;;;;;;;;;5451460;26;20002;-81
2024/04/14 00:05:46;;;;;;;6.55;2.17;;;;;;;;;;5451623;26;20442;-82
2024/04/14 00:08:12;;;;;;;10.38;3.00;;;;;;;;;;5451879;26;20012;-82
2024/04/14 00:10:38;;;;;;;8.80;2.50;;;;;;;;;;5453124;26;20348;-84
2024/04/14 00:13:04;;;;;;;12.38;2.90;;;;;;;;;;5451851;26;19999;-81
2024/04/14 00:15:30;;;;;;;8.60;2.45;;;;;;;;;;5454574;26;20003;-82
2024/04/14 00:17:56;;;;;;;9.55;2.67;;;;;;;;;;5452094;26;20463;-81
2024/04/14 00:20:23;;;;;;;10.45;2.45;;;;;;;;;;5452829;26;19999;-82
2024/04/14 00:22:49;;;;;;;11.95;3.47;;;;;;;;;;5452189;26;20006;-83
2024/04/14 00:25:16;;;;;;;7.53;2.53;;;;;;;;;;5454184;26;20002;-83
2024/04/14 00:27:42;;;;;;;9.15;2.55;;;;;;;;;;5452109;26;20075;-83
2024/04/14 00:30:08;;;;;;;14.45;3.60;;;;;;;;;;5453658;26;20011;-85
2024/04/14 00:32:34;;;;;;;10.73;3.47;;;;;;;;;;5452927;26;20011;-83
2024/04/14 00:35:02;;;;;;;11.40;2.85;;;;;;;;;;5453894;26;19999;-83
2024/04/14 00:37:28;;;;;;;9.50;2.33;;;;;;;;;;5452329;26;19998;-82
2024/04/14 00:39:54;;;;;;;10.20;2.72;;;;;;;;;;5454311;26;20002;-83
2024/04/14 00:42:20;;;;;;;11.63;3.33;;;;;;;;;;5454962;26;20005;-83
2024/04/14 00:44:47;;;;;;;9.68;2.75;;;;;;;;;;5453267;26;20005;-85
2024/04/14 00:47:13;;;;;;;11.20;2.67;;;;;;;;;;5455085;26;19999;-85
2024/04/14 00:49:40;;;;;;;12.50;3.10;;;;;;;;;;5451224;26;20009;-84
2024/04/14 00:52:07;;;;;;;11.57;2.83;;;;;;;;;;5450437;26;20334;-84
2024/04/14 00:54:33;;;;;;;12.13;3.53;;;;;;;;;;5450350;26;20035;-84
2024/04/14 00:57:00;;;;;;;9.85;2.65;;;;;;;;;;5450308;26;20495;-84
2024/04/14 00:59:27;;;;;;;11.07;3.20;;;;;;;;;;5450467;26;20079;-83
2024/04/14 01:01:53;;;;;;;9.70;2.25;;;;;;;;;;5449974;26;20003;-82
2024/04/14 01:04:19;;;;;;;12.35;2.97;;;;;;;;;;5450082;26;20409;-82
2024/04/14 01:06:45;;;;;;;8.68;2.17;;;;;;;;;;5452053;26;20457;-85
2024/04/14 01:09:11;;;;;;;13.10;3.53;;;;;;;;;;5452561;26;20013;-83
2024/04/14 01:11:41;;;;;;;10.48;3.05;;;;;;;;;;5450447;26;20006;-84
2024/04/14 01:14:07;;;;;;;17.70;4.22;;;;;;;;;;5450347;26;20071;-83
2024/04/14 01:16:36;;;;;;;13.50;3.78;;;;;;;;;;5450248;26;20040;-83
2024/04/14 01:19:06;;;;;;;9.63;3.05;;;;;;;;;;5450749;26;20003;-86
2024/04/14 01:21:32;;;;;;;12.38;3.75;;;;;;;;;;5451955;26;19999;-85
2024/04/14 01:23:58;;;;;;;13.07;3.58;;;;;;;;;;5451783;26;20003;-86
2024/04/14 01:26:25;;;;;;;12.52;3.80;;;;;;;;;;5451998;26;20003;-86
2024/04/14 01:28:51;;;;;;;14.50;3.33;;;;;;;;;;5451340;26;20003;-84
2024/04/14 01:31:17;;;;;;;14.35;3.15;;;;;;;;;;5452167;26;20014;-86
2024/04/14 01:33:44;;;;;;;13.15;3.42;;;;;;;;;;5452196;26;20075;-87
2024/04/14 01:36:10;;;;;;;19.80;4.07;;;;;;;;;;5453967;26;20003;-86
2024/04/14 01:38:36;;;;;;;13.15;3.85;;;;;;;;;;5451652;26;20003;-87
2024/04/14 01:41:02;;;;;;;11.50;2.95;;;;;;;;;;5453716;26;19999;-87
2024/04/14 01:43:29;;;;;;;8.50;3.10;;;;;;;;;;5451278;26;20006;-86
2024/04/14 01:45:55;;;;;;;13.10;4.20;;;;;;;;;;5449733;26;20003;-86
2024/04/14 01:48:21;;;;;;;13.23;3.53;;;;;;;;;;5451830;26;20021;-85
2024/04/14 01:50:48;;;;;;;13.45;3.50;;;;;;;;;;5449712;26;20500;-85
2024/04/14 01:53:14;;;;;;;12.68;3.92;;;;;;;;;;5451654;26;20006;-85
2024/04/14 01:55:44;;;;;;;12.00;3.40;;;;;;;;;;5449926;26;20010;-84
2024/04/14 01:58:10;;;;;;;18.10;4.50;;;;;;;;;;5449378;26;20003;-85
2024/04/14 02:00:36;;;;;;;14.02;4.30;;;;;;;;;;5451818;26;20010;-86
2024/04/14 02:03:02;;;;;;;13.02;3.25;;;;;;;;;;5449482;26;20070;-84
2024/04/14 02:05:28;;;;;;;13.57;3.92;;;;;;;;;;5449320;26;19999;-84
2024/04/14 02:07:54;;;;;;;17.45;3.67;;;;;;;;;;5449340;26;20010;-84
2024/04/14 02:10:20;;;;;;;13.13;3.35;;;;;;;;;;5451582;26;20043;-86
2024/04/14 02:12:46;;;;;;;11.30;3.00;;;;;;;;;;5452935;26;20003;-85
2024/04/14 02:15:13;;;;;;;8.60;2.42;;;;;;;;;;5452961;26;20096;-82
2024/04/14 02:17:39;;;;;;;10.55;3.50;;;;;;;;;;5453034;26;20377;-82
2024/04/14 02:20:05;;;;;;;13.95;3.35;;;;;;;;;;5452764;26;20002;-82
2024/04/14 02:22:31;;;;;;;13.90;3.35;;;;;;;;;;5454906;26;19999;-80
2024/04/14 02:24:57;;;;;;;12.57;2.90;;;;;;;;;;5452565;26;20060;-81
2024/04/14 02:27:23;;;;;;;14.85;2.80;;;;;;;;;;5453172;26;20007;-83
2024/04/14 02:29:49;;;;;;;12.18;2.13;;;;;;;;;;5454708;26;20014;-82
2024/04/14 02:32:15;;;;;;;8.18;2.53;;;;;;;;;;5451934;26;20002;-81
2024/04/14 02:34:41;;;;;;;9.40;2.97;;;;;;;;;;5452533;26;20035;-81
2024/04/14 02:37:07;;;;;;;13.10;2.63;;;;;;;;;;5452475;26;20003;-81
2024/04/14 02:39:33;;;;;;;10.45;2.90;;;;;;;;;;5452383;26;20003;-84
2024/04/14 02:41:59;;;;;;;8.73;1.75;;;;;;;;;;5452200;26;20005;-83
2024/04/14 02:44:25;;;;;;;15.10;3.47;;;;;;;;;;5451817;26;20005;-83
2024/04/14 02:46:51;;;;;;;9.70;2.13;;;;;;;;;;5452251;26;20007;-82
2024/04/14 02:49:17;;;;;;;10.75;2.17;;;;;;;;;;5452106;26;20010;-82
2024/04/14 02:51:44;;;;;;;11.88;2.58;;;;;;;;;;5452333;26;20005;-83
2024/04/14 02:54:10;;;;;;;8.90;1.90;;;;;;;;;;5453454;26;20485;-83
2024/04/14 02:56:36;;;;;;;8.68;1.38;;;;;;;;;;5453995;26;20456;-81
2024/04/14 02:59:02;;;;;;;14.10;2.38;;;;;;;;;;5451696;26;20491;-81
2024/04/14 03:01:28;;;;;;;9.98;2.35;;;;;;;;;;5451804;26;19999;-81
2024/04/14 03:03:54;;;;;;;6.47;1.45;;;;;;;;;;5451762;26;20388;-82
2024/04/14 03:06:20;;;;;;;11.10;2.33;;;;;;;;;;5451421;26;20009;-81
2024/04/14 03:08:46;;;;;;;8.70;1.77;;;;;;;;;;5453545;26;20013;-81
2024/04/14 03:11:13;;;;;;;13.48;1.90;;;;;;;;;;5451504;26;19998;-80
2024/04/14 03:13:38;;;;;;;9.25;1.55;;;;;;;;;;5451685;26;20031;-80
2024/04/14 03:16:06;;;;;;;12.48;2.17;;;;;;;;;;5451341;26;19998;-80
2024/04/14 03:18:32;;;;;;;8.90;1.50;;;;;;;;;;5453571;26;19999;-80
2024/04/14 03:20:59;;;;;;;9.55;1.75;;;;;;;;;;5451643;26;19999;-80
2024/04/14 03:23:25;;;;;;;8.20;1.67;;;;;;;;;;5449918;26;20003;-80
2024/04/14 03:25:52;;;;;;;8.70;1.65;;;;;;;;;;5453257;26;20010;-80
2024/04/14 03:28:18;;;;;;;7.88;1.67;;;;;;;;;;5451265;26;19999;-79
2024/04/14 03:30:44;;;;;;;6.32;1.58;;;;;;;;;;5451600;26;19999;-79
2024/04/14 03:33:10;;;;;;;8.13;1.73;;;;;;;;;;5451160;26;20651;-81
2024/04/14 03:35:36;;;;;;;7.40;1.90;;;;;;;;;;5453907;26;20080;-79
2024/04/14 03:38:02;;;;;;;15.02;2.13;;;;;;;;;;5451834;26;19998;-80
2024/04/14 03:40:28;;;;;;;8.35;1.80;;;;;;;;;;5451750;26;20006;-82
2024/04/14 03:42:54;;;;;;;11.82;2.28;;;;;;;;;;5451553;26;20006;-82
2024/04/14 03:45:23;;;;;;;11.45;2.53;;;;;;;;;;5451249;26;20008;-81
2024/04/14 03:47:49;;;;;;;9.32;1.85;;;;;;;;;;5451956;26;20003;-80
2024/04/14 03:50:15;;;;;;;13.15;2.40;;;;;;;;;;5451708;26;20351;-80
2024/04/14 03:52:41;;;;;;;13.68;2.28;;;;;;;;;;5452352;26;20011;-80
2024/04/14 03:55:07;;;;;;;14.20;2.17;;;;;;;;;;5453449;26;20003;-82
2024/04/14 03:57:33;;;;;;;12.30;1.88;;;;;;;;;;5451840;26;20041;-81
2024/04/14 03:59:59;;;;;;;8.20;1.95;;;;;;;;;;5451710;26;20010;-82
2024/04/14 04:02:25;;;;;;;7.07;1.38;;;;;;;;;;5451529;26;20027;-82
2024/04/14 04:04:51;;;;;;;11.00;2.08;;;;;;;;;;5451730;26;20075;-82
2024/04/14 04:07:17;;;;;;;12.98;2.00;;;;;;;;;;5451188;26;20058;-82
2024/04/14 04:09:43;;;;;;;10.23;1.92;;;;;;;;;;5451858;26;20447;-81
2024/04/14 04:12:09;;;;;;;7.75;1.80;;;;;;;;;;5451301;26;20075;-82
2024/04/14 04:14:35;;;;;;;8.55;1.75;;;;;;;;;;5452417;26;20075;-82
2024/04/14 04:17:01;;;;;;;13.38;2.45;;;;;;;;;;5452024;26;20010;-82
2024/04/14 04:19:27;;;;;;;13.77;2.47;;;;;;;;;;5454037;26;20002;-82
2024/04/14 04:21:53;;;;;;;13.20;2.13;;;;;;;;;;5451820;26;20507;-85
2024/04/14 04:24:19;;;;;;;8.82;2.00;;;;;;;;;;5453481;26;20075;-84
2024/04/14 04:26:45;;;;;;;9.32;2.05;;;;;;;;;;5453625;26;19999;-82
2024/04/14 04:29:11;;;;;;;10.48;2.00;;;;;;;;;;5452038;26;20019;-80
2024/04/14 04:31:37;;;;;;;7.07;1.58;;;;;;;;;;5452367;26;20431;-81
2024/04/14 04:34:03;;;;;;;12.88;2.22;;;;;;;;;;5450265;26;20396;-82
2024/04/14 04:36:29;;;;;;;12.43;1.98;;;;;;;;;;5450947;26;20458;-82
2024/04/14 04:38:56;;;;;;;10.05;1.80;;;;;;;;;;5450784;26;20003;-81
2024/04/14 04:41:22;;;;;;;10.13;1.75;;;;;;;;;;5450712;26;20434;-82
2024/04/14 04:43:48;;;;;;;11.93;2.05;;;;;;;;;;5450765;26;20442;-81
2024/04/14 04:46:14;;;;;;;10.48;2.05;;;;;;;;;;5452060;26;20003;-83
2024/04/14 04:48:40;;;;;;;6.20;2.05;;;;;;;;;;5451977;26;20074;-83
2024/04/14 04:51:06;;;;;;;10.68;1.90;;;;;;;;;;5451373;26;20010;-83
2024/04/14 04:53:32;;;;;;;10.70;2.13;;;;;;;;;;5452988;26;20013;-82
2024/04/14 04:55:58;;;;;;;12.05;2.38;;;;;;;;;;5450973;26;19999;-82
2024/04/14 04:58:24;;;;;;;11.77;1.90;;;;;;;;;;5451773;26;19999;-83
2024/04/14 05:00:56;;;;;;;16.63;2.15;;;;;;;;;;5450936;26;20075;-81
2024/04/14 05:03:23;;;;;;;9.63;1.65;;;;;;;;;;5450889;26;20446;-83
2024/04/14 05:05:59;;;;;;;10.13;1.70;;;;;;;;;;5450740;26;20018;-82
2024/04/14 05:08:26;;;;;;;14.75;2.78;;;;;;;;;;5452139;26;20002;-79
2024/04/14 05:10:53;;;;;;;20.48;3.22;;;;;;;;;;5450113;26;20083;-78
2024/04/14 05:13:19;;;;;;;14.10;2.08;;;;;;;;;;5450077;26;20030;-80
2024/04/14 05:15:45;;;;;;;9.45;1.95;;;;;;;;;;5450018;26;20061;-82
2024/04/14 05:18:11;;;;;;;16.27;2.13;;;;;;;;;;5452018;26;20009;-82
2024/04/14 05:20:38;;;;;;;9.27;1.83;;;;;;;;;;5452139;26;20002;-81
2024/04/14 05:23:04;;;;;;;14.15;2.30;;;;;;;;;;5450344;26;20060;-81
2024/04/14 05:25:30;;;;;;;10.82;1.73;;;;;;;;;;5450173;26;20006;-80
2024/04/14 05:27:56;;;;;;;10.07;2.15;;;;;;;;;;5450600;26;20080;-80
2024/04/14 05:30:22;;;;;;;11.90;2.05;;;;;;;;;;5449901;26;20002;-80
2024/04/14 05:32:48;;;;;;;10.98;2.38;;;;;;;;;;5449799;26;19999;-81
2024/04/14 05:35:14;;;;;;;13.23;3.00;;;;;;;;;;5449350;26;19995;-80
2024/04/14 05:37:40;;;;;;;10.82;2.10;;;;;;;;;;5449931;26;20002;-84
2024/04/14 05:40:07;;;;;;;10.63;1.92;;;;;;;;;;5449639;26;20030;-86
2024/04/14 05:42:33;;;;;;;15.27;2.10;;;;;;;;;;5452577;26;20014;-82
2024/04/14 05:44:59;;;;;;;15.48;2.45;;;;;;;;;;5450778;26;20350;-79
2024/04/14 05:47:25;;;;;;;16.23;2.92;;;;;;;;;;5452890;26;20003;-80
2024/04/14 05:49:51;;;;;;;13.02;3.42;;;;;;;;;;5453180;26;20003;-86
2024/04/14 05:52:17;;;;;;;11.77;1.88;;;;;;;;;;5454646;26;20418;-86
2024/04/14 05:54:43;;;;;;;12.27;2.45;;;;;;;;;;5453521;26;19998;-87
2024/04/14 05:57:09;;;;;;;13.50;2.67;;;;;;;;;;5453082;26;19999;-87
2024/04/14 05:59:35;;;;;;;12.38;2.22;;;;;;;;;;5453113;26;20009;-87
2024/04/14 06:02:01;;;;;;;18.65;2.20;;;;;;;;;;5453017;26;19999;-86
2024/04/14 06:04:27;;;;;;;10.73;2.28;;;;;;;;;;5453611;26;20003;-84
2024/04/14 06:06:53;;;;;;;15.35;2.35;;;;;;;;;;5454794;26;20003;-84
2024/04/14 06:09:21;;;;;;;14.02;2.40;;;;;;;;;;5482949;26;20022;-83
2024/04/14 06:11:47;;;;;;;16.02;2.67;;;;;;;;;;5483073;26;20017;-81
2024/04/14 06:14:13;;;;;;;12.13;2.17;;;;;;;;;;5482827;26;20014;-80
2024/04/14 06:16:39;;;;;;;16.77;3.33;;;;;;;;;;5482772;26;19999;-81
2024/04/14 06:19:05;;;;;;;9.65;2.03;;;;;;;;;;5483254;26;19999;-83
2024/04/14 06:21:31;;;;;;;14.10;2.42;;;;;;;;;;5453976;26;20039;-83
2024/04/14 06:23:57;;;;;;;13.18;2.28;;;;;;;;;;5482963;26;20017;-81
2024/04/14 06:26:23;;;;;;;11.55;2.35;;;;;;;;;;5482480;26;20003;-81
2024/04/14 06:28:49;;;;;;;10.80;1.88;;;;;;;;;;5482665;26;20342;-82
2024/04/14 06:31:15;;;;;;;8.70;1.50;;;;;;;;;;5482476;26;20449;-82
2024/04/14 06:33:41;;;;;;;9.50;1.98;;;;;;;;;;5482845;26;20083;-82
2024/04/14 06:36:07;;;;;;;9.43;1.83;;;;;;;;;;5482434;26;20003;-81
2024/04/14 06:38:34;;;;;;;16.60;3.58;;;;;;;;;;5482329;26;20017;-80
2024/04/14 06:41:01;;;;;;;15.45;2.10;;;;;;;;;;5482626;26;20010;-81
2024/04/14 06:43:27;;;;;;;9.77;1.80;;;;;;;;;;5482664;26;20013;-83
2024/04/14 06:45:54;;;;;;;14.07;2.15;;;;;;;;;;5456722;26;20463;-83
2024/04/14 06:48:20;;;;;;;10.77;2.05;;;;;;;;;;5455615;26;20350;-83
2024/04/14 06:50:46;;;;;;;9.48;2.40;;;;;;;;;;5461933;26;19999;-83
2024/04/14 06:53:13;;;;;;;16.20;2.75;;;;;;;;;;5454220;26;20002;-83
2024/04/14 06:55:44;;;;;;;15.07;2.30;;;;;;;;;;5481768;26;20031;-84
2024/04/14 06:58:13;;;;;;;9.93;1.77;;;;;;;;;;5482137;26;20079;-83
2024/04/14 07:00:39;;;;;;;13.48;2.03;;;;;;;;;;5482348;26;20450;-85
2024/04/14 07:03:05;;;;;;;8.65;1.90;;;;;;;;;;5453985;26;19999;-83
2024/04/14 07:05:31;;;;;;;13.27;2.03;;;;;;;;;;5481899;26;20414;-82
2024/04/14 07:07:57;;;;;;;10.38;1.88;;;;;;;;;;5482669;26;20072;-84
2024/04/14 07:10:23;;;;;;;8.85;2.10;;;;;;;;;;5481856;26;20006;-83
2024/04/14 07:12:49;;;;;;;9.88;2.80;;;;;;;;;;5482177;26;20439;-84
2024/04/14 07:15:15;;;;;;;14.02;2.10;;;;;;;;;;5453578;26;20465;-84
2024/04/14 07:17:41;;;;;;;16.92;2.95;;;;;;;;;;5482168;26;19999;-82
2024/04/14 07:20:08;;;;;;;11.63;2.50;;;;;;;;;;5482183;26;20031;-84
2024/04/14 07:22:34;;;;;;;10.25;2.55;;;;;;;;;;5481622;26;20416;-83
2024/04/14 07:25:00;;;;;;;9.88;1.95;;;;;;;;;;5481901;26;20419;-84
2024/04/14 07:27:26;;;;;;;9.95;2.80;;;;;;;;;;5453329;26;20017;-84
2024/04/14 07:29:52;;;;;;;16.17;2.40;;;;;;;;;;5482165;26;20344;-84
2024/04/14 07:32:18;;;;;;;13.27;2.55;;;;;;;;;;5481750;26;20011;-84
2024/04/14 07:34:44;;;;;;;14.57;2.40;;;;;;;;;;5481882;26;20003;-83
2024/04/14 07:37:10;;;;;;;13.45;2.17;;;;;;;;;;5453232;26;20081;-84
2024/04/14 07:39:36;;;;;;;13.48;2.75;;;;;;;;;;5481492;26;20002;-84
2024/04/14 07:42:05;;;;;;;8.23;2.22;;;;;;;;;;5481710;26;20003;-84
2024/04/14 07:44:31;;;;;;;10.90;1.95;;;;;;;;;;5481285;26;20079;-83
2024/04/14 07:46:57;;;;;;;11.27;2.30;;;;;;;;;;5453793;26;19999;-83
2024/04/14 07:49:23;;;;;;;17.00;2.83;;;;;;;;;;5481856;26;20007;-85
2024/04/14 07:51:49;;;;;;;10.23;1.95;;;;;;;;;;5453460;26;19999;-84
2024/04/14 07:54:15;;;;;;;11.27;2.33;;;;;;;;;;5481963;26;19991;-84
2024/04/14 07:56:44;;;;;;;14.88;2.40;;;;;;;;;;5481838;26;19998;-84
2024/04/14 07:59:10;;;;;;;12.35;2.47;;;;;;;;;;5453213;26;20031;-83
2024/04/14 08:01:36;;;;;;;10.07;1.83;;;;;;;;;;5481715;26;20018;-83
2024/04/14 08:04:02;;;;;;;11.95;2.85;;;;;;;;;;5453034;26;19999;-83
2024/04/14 08:06:29;;;;;;;18.50;4.15;;;;;;;;;;5481179;26;20010;-83
2024/04/14 08:08:55;;;;;;;11.65;2.67;;;;;;;;;;5452301;26;20011;-83
2024/04/14 08:11:21;;;;;;;10.25;1.90;;;;;;;;;;5452933;26;20000;-84
2024/04/14 08:13:47;;;;;;;12.80;2.38;;;;;;;;;;5481650;26;20071;-83
2024/04/14 08:16:13;;;;;;;11.70;2.42;;;;;;;;;;5481553;26;19999;-84
2024/04/14 08:18:39;;;;;;;17.48;2.58;;;;;;;;;;5481262;26;20339;-85
2024/04/14 08:21:05;;;;;;;12.45;2.70;;;;;;;;;;5481205;26;19998;-85
2024/04/14 08:23:31;;;;;;;13.80;1.88;;;;;;;;;;5481058;26;20402;-84
2024/04/14 08:26:00;;;;;;;9.13;1.70;;;;;;;;;;5481405;26;20430;-84
2024/04/14 08:28:26;;;;;;;11.20;2.13;;;;;;;;;;5481074;26;20595;-85
2024/04/14 08:30:52;;;;;;;13.45;2.25;;;;;;;;;;5481818;26;20009;-84
2024/04/14 08:33:18;;;;;;;15.20;2.38;;;;;;;;;;5480935;26;19998;-84
2024/04/14 08:35:48;;;;;;;13.40;1.88;;;;;;;;;;5452866;26;20075;-85
2024/04/14 08:38:14;;;;;;;12.35;2.38;;;;;;;;;;5481205;26;20131;-84
2024/04/14 08:40:40;;;;;;;13.40;2.55;;;;;;;;;;5481407;26;20002;-84
2024/04/14 08:43:06;;;;;;;14.13;2.50;;;;;;;;;;5483357;26;20003;-84
2024/04/14 08:45:33;;;;;;;8.95;1.80;;;;;;;;;;5481743;26;20038;-84
2024/04/14 08:48:02;;;;;;;10.75;2.00;;;;;;;;;;5453183;26;20067;-85
2024/04/14 08:50:29;;;;;;;13.00;2.25;;;;;;;;;;5480417;26;20014;-83
2024/04/14 08:52:55;;;;;;;11.27;2.13;;;;;;;;;;5481575;26;20458;-84
2024/04/14 08:55:21;;;;;;;8.73;1.80;;;;;;;;;;5480558;26;20387;-82
2024/04/14 08:57:47;;;;;;;13.55;1.85;;;;;;;;;;5452780;26;20003;-83
2024/04/14 09:00:17;;;;;;;14.30;2.50;;;;;;;;;;5481062;26;20010;-84
2024/04/14 09:02:45;;;;;;;10.48;2.38;;;;;;;;;;5480448;26;20003;-81
2024/04/14 09:05:12;;;;;;;10.40;1.63;;;;;;;;;;5480488;26;19995;-82
2024/04/14 09:07:39;;;;;;;7.40;1.58;;;;;;;;;;5480342;26;20042;-80
2024/04/14 09:10:06;;;;;;;10.30;1.98;;;;;;;;;;5480609;26;20507;-81
2024/04/14 09:12:32;;;;;;;10.13;1.70;;;;;;;;;;5479354;26;19998;-81
2024/04/14 09:14:58;;;;;;;11.77;1.90;;;;;;;;;;5480371;26;20348;-81
2024/04/14 09:17:24;;;;;;;8.63;2.35;;;;;;;;;;5451746;26;20075;-80
2024/04/14 09:19:50;;;;;;;8.82;1.92;;;;;;;;;;5477912;26;20439;-81
2024/04/14 09:22:17;;;;;;;9.18;1.88;;;;;;;;;;5480400;26;20011;-81
2024/04/14 09:24:51;;;;;;;12.48;2.22;;;;;;;;;;5479276;26;19999;-82
2024/04/14 09:27:17;;;;;;;7.38;1.65;;;;;;;;;;5479997;26;20472;-81
2024/04/14 09:29:43;;;;;;;8.82;1.60;;;;;;;;;;5478691;26;19999;-80
2024/04/14 09:32:10;;;;;;;12.90;2.65;;;;;;;;;;5479921;26;20350;-81
2024/04/14 09:34:38;;;;;;;11.13;2.10;;;;;;;;;;5479714;26;20023;-81
2024/04/14 09:37:06;;;;;;;7.85;1.60;;;;;;;;;;5480129;26;20010;-81
2024/04/14 09:39:32;;;;;;;9.35;1.67;;;;;;;;;;5479759;26;20009;-81
2024/04/14 09:42:00;;;;;;;7.03;1.70;;;;;;;;;;5451227;26;20044;-81
2024/04/14 09:44:26;;;;;;;7.95;1.88;;;;;;;;;;5479071;26;20006;-81
2024/04/14 09:46:53;;;;;;;12.65;1.60;;;;;;;;;;5479918;26;20003;-82
2024/04/14 09:49:20;;;;;;;8.68;2.15;;;;;;;;;;5451117;26;20009;-80
2024/04/14 09:51:49;;;;;;;10.25;1.90;;;;;;;;;;5479049;26;19998;-81
2024/04/14 09:54:15;;;;;;;9.02;1.83;;;;;;;;;;5478463;26;19995;-81
2024/04/14 09:56:41;;;;;;;6.35;1.10;;;;;;;;;;5478535;26;19995;-81
2024/04/14 09:59:07;;;;;;;7.03;1.55;;;;;;;;;;5451236;26;19998;-79
2024/04/14 10:01:39;;;;;;;9.75;1.83;;;;;;;;;;5450395;26;19995;-81
2024/04/14 10:04:06;;;;;;;11.48;2.08;;;;;;;;;;5478719;26;20346;-81
2024/04/14 10:06:33;;;;;;;13.23;2.22;;;;;;;;;;5478069;26;20014;-80
2024/04/14 10:08:59;;;;;;;11.25;2.17;;;;;;;;;;5478424;26;20030;-81
2024/04/14 10:11:26;;;;;;;8.30;1.58;;;;;;;;;;5478126;26;20052;-81
2024/04/14 10:13:53;;;;;;;9.50;1.88;;;;;;;;;;5450081;26;20466;-82
2024/04/14 10:16:20;;;;;;;9.98;2.30;;;;;;;;;;5478359;26;20080;-80
2024/04/14 10:18:47;;;;;;;10.73;2.15;;;;;;;;;;5478138;26;20048;-82
2024/04/14 10:21:15;;;;;;;12.50;1.83;;;;;;;;;;5478915;26;20010;-82
2024/04/14 10:23:48;;;;;;;7.93;1.40;;;;;;;;;;5449993;26;20395;-83
2024/04/14 10:26:15;;;;;;;9.55;1.80;;;;;;;;;;5450626;26;20069;-82
2024/04/14 10:28:48;;;;;;;8.52;1.70;;;;;;;;;;5478572;26;20006;-82
2024/04/14 10:31:24;;;;;;;8.68;2.25;;;;;;;;;;5479400;26;19999;-83
2024/04/14 10:34:00;;;;;;;13.30;2.47;;;;;;;;;;5482613;26;20003;-82
2024/04/14 10:36:27;;;;;;;9.50;1.65;;;;;;;;;;5453704;26;19999;-82
2024/04/14 10:38:53;;;;;;;18.80;1.90;;;;;;;;;;5454440;26;20010;-83
2024/04/14 10:41:19;;;;;;;6.30;1.17;;;;;;;;;;5454496;26;20052;-84
2024/04/14 10:43:45;;;;;;;5.88;1.35;;;;;;;;;;5482086;26;20010;-83
2024/04/14 10:46:11;;;;;;;4.68;1.30;;;;;;;;;;5482902;26;20003;-83
2024/04/14 10:48:44;;;;;;;8.85;2.08;;;;;;;;;;5482323;26;20003;-83
2024/04/14 10:51:10;;;;;;;8.73;1.95;;;;;;;;;;5453977;26;19998;-83
2024/04/14 10:53:37;;;;;;;4.22;0.90;;;;;;;;;;5453830;26;20002;-83
2024/04/14 10:56:03;;;;;;;4.40;0.90;;;;;;;;;;5482192;26;20010;-83
2024/04/14 10:58:36;;;;;;;4.45;0.85;;;;;;;;;;5482801;26;20010;-83
2024/04/14 11:01:02;;;;;;;8.40;1.00;;;;;;;;;;5482771;26;19999;-83
2024/04/14 11:03:29;;;;;;;4.72;1.20;;;;;;;;;;5482729;26;20003;-83
2024/04/14 11:05:55;;;;;;;4.20;1.30;;;;;;;;;;5482539;26;20003;-82
2024/04/14 11:08:22;;;;;;;6.85;1.20;;;;;;;;;;5482169;26;20067;-82
2024/04/14 11:10:49;;;;;;;3.95;1.02;;;;;;;;;;5453335;26;20014;-83
2024/04/14 11:13:16;;;;;;;3.95;1.10;;;;;;;;;;5482095;26;20011;-82
2024/04/14 11:15:43;;;;;;;5.70;1.33;;;;;;;;;;5451715;26;20458;-82
2024/04/14 11:18:09;;;;;;;6.78;1.25;;;;;;;;;;5481797;26;19999;-84
2024/04/14 11:20:35;;;;;;;6.53;1.15;;;;;;;;;;5453032;26;20072;-83
2024/04/14 11:23:01;;;;;;;3.63;1.13;;;;;;;;;;5453463;26;20035;-83
2024/04/14 11:25:28;;;;;;;4.05;0.70;;;;;;;;;;5481461;26;20003;-82
2024/04/14 11:27:55;;;;;;;3.70;0.90;;;;;;;;;;5453372;26;20071;-83
2024/04/14 11:30:27;;;;;;;8.32;1.55;;;;;;;;;;5452298;26;20071;-84
2024/04/14 11:32:53;;;;;;;4.40;0.80;;;;;;;;;;5481878;26;20044;-84
2024/04/14 11:35:20;;;;;;;5.15;1.00;;;;;;;;;;5481710;26;20010;-83
2024/04/14 11:37:50;;;;;;;4.70;1.15;;;;;;;;;;5481470;26;20035;-84
2024/04/14 11:40:18;;;;;;;;;;;;;;;;;;5482434;26;20010;-83
2024/04/14 11:42:44;;;;;;;5.95;1.08;;;;;;;;;;5450001;26;20241;-84
2024/04/14 11:45:11;;;;;;;6.22;1.33;;;;;;;;;;5453337;26;20003;-83
2024/04/14 11:47:37;;;;;;;5.43;0.88;;;;;;;;;;5481109;26;20319;-84
2024/04/14 11:50:03;;;;;;;7.72;1.55;;;;;;;;;;5481566;26;19999;-82
2024/04/14 11:52:29;;;;;;;4.25;0.98;;;;;;;;;;5481008;26;20022;-83
2024/04/14 11:54:55;;;;;;;4.93;1.35;;;;;;;;;;5481555;26;20014;-83
2024/04/14 11:57:24;;;;;;;7.00;1.85;;;;;;;;;;5481343;26;20454;-82
2024/04/14 11:59:51;;;;;;;4.85;0.82;;;;;;;;;;5481389;26;20391;-84
2024/04/14 12:02:18;;;;;;;5.30;1.02;;;;;;;;;;5481192;26;20007;-83
2024/04/14 12:04:44;;;;;;;5.68;1.15;;;;;;;;;;5480893;26;20570;-82
2024/04/14 12:07:10;;;;;;;6.40;1.38;;;;;;;;;;5481173;26;20003;-82
2024/04/14 12:09:36;;;;;;;5.60;1.27;;;;;;;;;;5480848;26;20106;-83
2024/04/14 12:12:02;;;;;;;9.85;2.08;;;;;;;;;;5451077;26;19999;-83
2024/04/14 12:14:28;;;;;;;4.15;1.00;;;;;;;;;;5480854;26;20017;-83
2024/04/14 12:16:57;;;;;;;6.45;1.42;;;;;;;;;;5481245;26;20003;-83
2024/04/14 12:19:23;;;;;;;7.47;1.55;;;;;;;;;;5482224;26;19999;-86
2024/04/14 12:21:55;;;;;;;5.53;1.27;;;;;;;;;;5453931;26;20071;-87
2024/04/14 12:24:21;;;;;;;5.88;1.50;;;;;;;;;;5486170;26;19998;-87
2024/04/14 12:26:47;;;;;;;9.02;1.63;;;;;;;;;;5457624;26;20014;-88
2024/04/14 12:29:13;;;;;;;5.32;1.20;;;;;;;;;;5486766;26;20003;-90
2024/04/14 12:31:39;;;;;;;6.22;1.02;;;;;;;;;;5486524;26;20323;-89
2024/04/14 12:34:05;;;;;;;7.22;1.45;;;;;;;;;;5485636;26;20342;-89
2024/04/14 12:36:31;;;;;;;3.53;0.85;;;;;;;;;;5484907;26;20431;-87
2024/04/14 12:38:57;;;;;;;7.10;1.08;;;;;;;;;;5485463;26;20010;-87
2024/04/14 12:41:23;;;;;;;5.97;1.35;;;;;;;;;;5485382;26;20023;-88
2024/04/14 12:43:49;;;;;;;7.75;0.98;;;;;;;;;;5484810;26;20466;-89
2024/04/14 12:46:17;;;;;;;5.88;1.42;;;;;;;;;;5484781;26;19998;-89
2024/04/14 12:48:45;;;;;;;8.93;0.90;;;;;;;;;;5485026;26;20010;-88
2024/04/14 12:51:11;;;;;;;7.07;1.13;;;;;;;;;;5486339;26;19998;-88
2024/04/14 12:53:37;;;;;;;5.88;0.85;;;;;;;;;;5485459;26;20003;-88
2024/04/14 12:56:03;;;;;;;6.35;1.15;;;;;;;;;;5484786;26;20023;-89
2024/04/14 12:58:29;;;;;;;4.97;1.27;;;;;;;;;;5486032;26;20446;-88
2024/04/14 13:00:56;;;;;;;4.85;0.70;;;;;;;;;;5485643;26;20347;-87
2024/04/14 13:03:22;;;;;;;5.70;1.00;;;;;;;;;;5485937;26;20056;-88
2024/04/14 13:05:49;;;;;;;5.47;0.90;;;;;;;;;;5490081;26;20005;-88
2024/04/14 13:08:15;;;;;;;6.97;1.25;;;;;;;;;;5490696;26;19999;-89
2024/04/14 13:10:41;;;;;;;9.02;1.65;;;;;;;;;;5485825;26;20448;-88
2024/04/14 13:13:07;;;;;;;5.95;1.15;;;;;;;;;;5487164;26;19999;-91
2024/04/14 13:15:33;;;;;;;7.10;1.20;;;;;;;;;;5480316;26;20478;-87
2024/04/14 13:17:59;;;;;;;5.68;1.52;;;;;;;;;;5480534;26;20005;-88
2024/04/14 13:20:25;;;;;;;6.78;1.15;;;;;;;;;;5451954;26;20010;-89
2024/04/14 13:22:51;;;;;;;6.43;1.27;;;;;;;;;;5480259;26;20015;-90
2024/04/14 13:25:18;;;;;;;6.35;1.35;;;;;;;;;;5452477;26;20044;-90
2024/04/14 13:27:44;;;;;;;6.05;1.90;;;;;;;;;;5451600;26;19998;-90
2024/04/14 13:30:10;;;;;;;5.82;1.20;;;;;;;;;;5480789;26;20427;-91
2024/04/14 13:32:36;;;;;;;5.22;1.05;;;;;;;;;;5480396;26;20010;-90
2024/04/14 13:35:02;;;;;;;6.25;1.10;;;;;;;;;;5480318;26;19996;-84
2024/04/14 13:37:28;;;;;;;3.75;0.98;;;;;;;;;;5479807;26;20014;-84
2024/04/14 13:39:54;;;;;;;5.80;1.58;;;;;;;;;;5451417;26;20006;-83
2024/04/14 13:42:20;;;;;;;5.43;1.02;;;;;;;;;;5479713;26;20006;-83
2024/04/14 13:44:46;;;;;;;9.00;1.20;;;;;;;;;;5478923;26;19995;-83
2024/04/14 13:47:12;;;;;;;4.22;1.20;;;;;;;;;;5480025;26;20067;-83
2024/04/14 13:49:39;;;;;;;7.07;1.20;;;;;;;;;;5479420;26;19995;-83
2024/04/14 13:52:05;;;;;;;5.18;1.30;;;;;;;;;;5479391;26;19995;-83
2024/04/14 13:54:31;;;;;;;9.30;1.60;;;;;;;;;;5450874;26;19999;-82
2024/04/14 13:56:57;;;;;;;8.27;1.58;;;;;;;;;;5479199;26;20010;-83
2024/04/14 13:59:24;;;;;;;6.70;1.60;;;;;;;;;;5479680;26;20006;-83
2024/04/14 14:01:50;;;;;;;6.13;1.08;;;;;;;;;;5479056;26;20454;-83
2024/04/14 14:04:18;;;;;;;9.75;1.75;;;;;;;;;;5450479;26;20475;-83
2024/04/14 14:06:44;;;;;;;8.18;1.85;;;;;;;;;;5480070;26;20020;-83
2024/04/14 14:09:11;;;;;;;8.18;1.38;;;;;;;;;;5454707;26;19999;-83
2024/04/14 14:11:37;;;;;;;7.68;1.58;;;;;;;;;;5482841;26;19995;-82
2024/04/14 14:14:04;;;;;;;6.25;1.25;;;;;;;;;;5482831;26;19995;-82
2024/04/14 14:16:30;;;;;;;8.07;1.55;;;;;;;;;;5454178;26;20006;-82
2024/04/14 14:18:59;;;;;;;7.85;1.60;;;;;;;;;;5482623;26;19995;-82
2024/04/14 14:21:25;;;;;;;7.28;0.85;;;;;;;;;;5482854;26;20002;-82
2024/04/14 14:23:51;;;;;;;8.02;2.22;;;;;;;;;;5453649;26;20359;-85
2024/04/14 14:26:18;;;;;;;5.97;1.70;;;;;;;;;;5482544;26;20304;-83
2024/04/14 14:28:44;;;;;;;3.90;1.20;;;;;;;;;;5482254;26;20019;-82
2024/04/14 14:31:11;;;;;;;7.18;1.17;;;;;;;;;;5482824;26;20075;-83